Time;durP1;ratioP1;P1;durP2;ratioP2;P2;SDS_P1;SDS_P2;PMS_P1;PMS_P2;Temp;Humidity;BMP_temperature;BMP_pressure;BME280_temperature;BME280_humidity;BME280_pressure;Samples;Min_cycle;Max_cycle;Signal;HPM_P1;HPM_P2
2021/12/10 00:01:06;;;;;;;;;;;24.50;46.50;;;;;;5100585;28;1982;-33
2021/12/10 00:03:34;;;;;;;;;;;24.40;46.30;;;;;;5100738;28;980;-33
2021/12/10 00:06:04;;;;;;;;;;;24.40;46.90;;;;;;5100659;28;1056;-33
2021/12/10 00:08:33;;;;;;;;;;;24.30;46.70;;;;;;5100378;28;1003;-36
2021/12/10 00:11:02;;;;;;;;;;;24.20;46.70;;;;;;5101151;28;1388;-35
2021/12/10 00:13:28;;;;;;;;;;;24.20;47.00;;;;;;5100927;28;915;-34
2021/12/10 00:15:56;;;;;;;;;;;24.10;47.10;;;;;;5100832;28;975;-33
2021/12/10 00:18:25;;;;;;;;;;;24.10;47.00;;;;;;5100927;28;991;-32
2021/12/10 00:20:57;;;;;;;;;;;24.20;47.20;;;;;;5101058;28;936;-34
2021/12/10 00:23:27;;;;;;;;;;;24.10;47.00;;;;;;5100806;28;2009;-36
2021/12/10 00:25:55;;;;;;;;;;;24.10;47.30;;;;;;5100973;28;1224;-34
2021/12/10 00:28:23;;;;;;;;;;;24.00;47.40;;;;;;5101196;28;939;-37
2021/12/10 00:31:04;;;;;;;;;;;23.90;47.70;;;;;;5100998;28;1828;-35
2021/12/10 00:33:35;;;;;;;;;;;23.90;48.00;;;;;;5101202;28;944;-33
2021/12/10 00:36:02;;;;;;;;;;;23.80;47.80;;;;;;5100659;28;996;-34
2021/12/10 00:38:28;;;;;;;;;;;23.80;48.30;;;;;;5100416;28;1039;-37
2021/12/10 00:40:57;;;;;;;;;;;23.70;48.30;;;;;;5100625;28;1162;-36
2021/12/10 00:43:24;;;;;;;;;;;23.70;48.60;;;;;;5100365;28;1910;-35
2021/12/10 00:45:51;;;;;;;;;;;23.70;48.80;;;;;;5100730;28;1043;-33
2021/12/10 00:48:18;;;;;;;;;;;23.60;48.90;;;;;;5100703;28;972;-35
2021/12/10 00:50:46;;;;;;;;;;;23.60;48.90;;;;;;5100630;28;972;-35
2021/12/10 00:53:13;;;;;;;;;;;23.50;48.80;;;;;;5100411;28;932;-34
2021/12/10 00:55:40;;;;;;;;;;;23.40;49.20;;;;;;5100313;28;947;-36
2021/12/10 00:58:09;;;;;;;;;;;23.30;49.40;;;;;;5100303;28;992;-33
2021/12/10 01:00:37;;;;;;;;;;;23.30;49.40;;;;;;5100435;28;1012;-35
2021/12/10 01:03:05;;;;;;;;;;;23.30;49.70;;;;;;5099985;28;1982;-32
2021/12/10 01:05:32;;;;;;;;;;;23.30;49.80;;;;;;5100387;28;952;-33
2021/12/10 01:07:59;;;;;;;;;;;23.20;49.60;;;;;;5100165;28;1000;-32
2021/12/10 01:10:27;;;;;;;;;;;23.20;49.80;;;;;;5100181;28;1002;-32
2021/12/10 01:12:55;;;;;;;;;;;23.20;50.10;;;;;;5100161;28;1025;-33
2021/12/10 01:15:43;;;;;;;;;;;23.10;50.00;;;;;;5100057;28;979;-35
2021/12/10 01:23:53;;;;;;;;;;;23.00;50.30;;;;;;5099759;28;1918;-36
2021/12/10 01:26:38;;;;;;;;;;;23.00;50.20;;;;;;5099641;28;1044;-32
2021/12/10 01:29:06;;;;;;;;;;;23.00;50.60;;;;;;5099649;28;1012;-34
2021/12/10 01:31:34;;;;;;;;;;;22.90;50.50;;;;;;5099827;28;1031;-36
2021/12/10 01:34:01;;;;;;;;;;;23.00;50.70;;;;;;5099688;28;992;-32
2021/12/10 01:36:28;;;;;;;;;;;22.90;50.60;;;;;;5099877;28;961;-31
2021/12/10 01:38:55;;;;;;;;;;;22.90;50.50;;;;;;5099822;28;1429;-32
2021/12/10 01:41:24;;;;;;;;;;;22.80;50.90;;;;;;5099558;28;988;-34
2021/12/10 01:43:52;;;;;;;;;;;22.80;50.90;;;;;;5098862;28;933;-34
2021/12/10 01:46:25;;;;;;;;;;;22.80;50.90;;;;;;5099277;28;1149;-32
2021/12/10 01:48:54;;;;;;;;;;;22.70;50.90;;;;;;5099443;28;1023;-32
2021/12/10 01:51:24;;;;;;;;;;;22.80;51.00;;;;;;5099752;28;1052;-35
2021/12/10 01:53:53;;;;;;;;;;;22.70;50.90;;;;;;5099551;28;1187;-34
2021/12/10 01:56:21;;;;;;;;;;;22.70;50.80;;;;;;5099602;28;1113;-34
2021/12/10 01:58:48;;;;;;;;;;;22.70;51.10;;;;;;5099577;28;1046;-32
2021/12/10 02:01:22;;;;;;;;;;;22.60;51.00;;;;;;5090188;28;1892;-36
2021/12/10 02:03:49;;;;;;;;;;;22.60;50.90;;;;;;5095354;28;1909;-31
2021/12/10 02:06:17;;;;;;;;;;;22.60;51.30;;;;;;5099073;28;954;-29
2021/12/10 02:08:44;;;;;;;;;;;22.60;51.20;;;;;;5098754;28;1003;-29
2021/12/10 02:11:11;;;;;;;;;;;22.60;50.90;;;;;;5099455;28;980;-29
2021/12/10 02:13:38;;;;;;;;;;;22.60;51.10;;;;;;5092306;28;1968;-31
2021/12/10 02:16:05;;;;;;;;;;;22.70;51.10;;;;;;5090598;28;1031;-31
2021/12/10 02:18:32;;;;;;;;;;;22.60;51.20;;;;;;5078824;28;928;-30
2021/12/10 02:23:56;;;;;;;;;;;22.60;51.50;;;;;;5092485;27;1335;-29
2021/12/10 02:26:24;;;;;;;;;;;22.60;51.20;;;;;;5092774;27;1005;-29
2021/12/10 02:28:51;;;;;;;;;;;22.60;51.00;;;;;;5092346;28;1096;-29
2021/12/10 02:31:17;;;;;;;;;;;22.50;51.00;;;;;;5092563;28;961;-33
2021/12/10 02:33:44;;;;;;;;;;;22.50;51.30;;;;;;5092172;28;933;-30
2021/12/10 02:36:12;;;;;;;;;;;22.40;51.50;;;;;;5092325;28;984;-31
2021/12/10 02:38:39;;;;;;;;;;;22.40;51.70;;;;;;5092418;28;994;-31
2021/12/10 02:41:07;;;;;;;;;;;22.40;51.60;;;;;;5092244;28;992;-32
2021/12/10 02:43:34;;;;;;;;;;;22.40;51.80;;;;;;5092089;28;1909;-32
2021/12/10 02:46:01;;;;;;;;;;;22.30;51.70;;;;;;5092109;28;936;-32
2021/12/10 02:48:28;;;;;;;;;;;22.40;51.90;;;;;;5091878;28;1066;-29
2021/12/10 02:50:56;;;;;;;;;;;22.40;51.80;;;;;;5091424;28;992;-30
2021/12/10 02:53:27;;;;;;;;;;;22.30;51.90;;;;;;5091480;27;1035;-32
2021/12/10 02:55:54;;;;;;;;;;;22.40;52.00;;;;;;5091988;27;962;-29
2021/12/10 02:58:22;;;;;;;;;;;22.30;52.00;;;;;;5091258;28;955;-29
2021/12/10 03:00:50;;;;;;;;;;;22.30;52.00;;;;;;5091424;28;1058;-29
2021/12/10 03:03:17;;;;;;;;;;;22.30;51.80;;;;;;5091286;28;1906;-31
2021/12/10 03:05:44;;;;;;;;;;;22.30;52.00;;;;;;5091556;28;999;-30
2021/12/10 03:08:11;;;;;;;;;;;22.30;52.00;;;;;;5091334;28;933;-30
2021/12/10 03:10:38;;;;;;;;;;;22.30;52.00;;;;;;5091098;28;1018;-31
2021/12/10 03:13:05;;;;;;;;;;;22.30;52.00;;;;;;5091283;28;1004;-31
2021/12/10 03:15:35;;;;;;;;;;;22.20;51.90;;;;;;5091701;28;1054;-31
2021/12/10 03:18:02;;;;;;;;;;;22.30;52.10;;;;;;5091345;28;1030;-29
2021/12/10 03:20:30;;;;;;;;;;;22.30;52.00;;;;;;5091032;28;1129;-30
2021/12/10 03:22:58;;;;;;;;;;;22.30;51.80;;;;;;5091158;28;1906;-30
2021/12/10 03:25:25;;;;;;;;;;;22.20;51.90;;;;;;5090777;28;1023;-29
2021/12/10 03:27:51;;;;;;;;;;;22.20;52.20;;;;;;5090969;28;1096;-30
2021/12/10 03:30:20;;;;;;;;;;;22.30;52.10;;;;;;5091072;27;1060;-31
2021/12/10 03:32:49;;;;;;;;;;;22.30;52.00;;;;;;5091246;28;943;-31
2021/12/10 03:35:22;;;;;;;;;;;22.20;52.00;;;;;;5077855;28;944;-29
2021/12/10 03:38:06;;;;;;;;;;;22.30;51.90;;;;;;5078254;28;1004;-33
2021/12/10 03:40:33;;;;;;;;;;;22.20;51.90;;;;;;5077357;28;1114;-28
2021/12/10 03:43:00;;;;;;;;;;;22.30;52.00;;;;;;5077152;28;1906;-31
2021/12/10 03:45:28;;;;;;;;;;;22.40;51.90;;;;;;5077134;28;968;-31
2021/12/10 03:47:56;;;;;;;;;;;22.30;52.00;;;;;;5077623;28;1019;-30
2021/12/10 03:50:24;;;;;;;;;;;22.20;51.90;;;;;;5076598;28;947;-31
2021/12/10 03:52:51;;;;;;;;;;;22.30;52.00;;;;;;5077117;28;952;-30
2021/12/10 03:55:18;;;;;;;;;;;22.30;52.00;;;;;;5076613;28;873;-31
2021/12/10 03:57:46;;;;;;;;;;;22.20;52.10;;;;;;5077410;28;1077;-31
2021/12/10 04:00:13;;;;;;;;;;;22.30;52.00;;;;;;5076821;27;943;-31
2021/12/10 04:02:40;;;;;;;;;;;22.20;51.90;;;;;;5077303;28;1981;-32
2021/12/10 04:05:09;;;;;;;;;;;22.20;51.90;;;;;;5076889;28;983;-30
2021/12/10 04:07:35;;;;;;;;;;;22.20;51.60;;;;;;5077304;28;991;-28
2021/12/10 04:10:05;;;;;;;;;;;22.30;52.00;;;;;;5076761;28;952;-30
2021/12/10 04:12:31;;;;;;;;;;;22.30;51.60;;;;;;5076476;28;1008;-31
2021/12/10 04:14:58;;;;;;;;;;;22.30;51.60;;;;;;5076348;28;972;-29
2021/12/10 04:17:25;;;;;;;;;;;22.30;51.40;;;;;;5076924;28;979;-32
2021/12/10 04:19:52;;;;;;;;;;;22.30;51.50;;;;;;5076701;28;987;-29
2021/12/10 04:22:21;;;;;;;;;;;22.30;51.50;;;;;;5076537;28;1975;-30
2021/12/10 04:24:48;;;;;;;;;;;22.40;51.60;;;;;;5076666;28;936;-31
2021/12/10 04:27:15;;;;;;;;;;;22.40;51.50;;;;;;5076834;28;1003;-32
2021/12/10 04:29:42;;;;;;;;;;;22.40;51.40;;;;;;5076418;28;1043;-31
2021/12/10 04:32:10;;;;;;;;;;;22.50;51.40;;;;;;5076889;28;1031;-31
2021/12/10 04:34:37;;;;;;;;;;;22.40;51.40;;;;;;5076221;28;1019;-31
2021/12/10 04:37:05;;;;;;;;;;;22.40;51.20;;;;;;5076232;27;934;-30
2021/12/10 04:39:34;;;;;;;;;;;22.40;51.10;;;;;;5076026;28;988;-29
2021/12/10 04:42:01;;;;;;;;;;;22.40;51.30;;;;;;5076461;28;982;-30
2021/12/10 04:44:28;;;;;;;;;;;22.50;51.00;;;;;;5076043;28;1910;-31
2021/12/10 04:46:55;;;;;;;;;;;22.50;50.70;;;;;;5074564;28;1051;-29
2021/12/10 04:49:21;;;;;;;;;;;22.50;50.70;;;;;;5075952;28;1005;-34
2021/12/10 04:51:49;;;;;;;;;;;22.40;50.70;;;;;;5075781;28;1000;-30
2021/12/10 04:54:18;;;;;;;;;;;22.50;50.80;;;;;;5075586;28;976;-31
2021/12/10 04:56:47;;;;;;;;;;;22.50;50.70;;;;;;5075643;28;929;-32
2021/12/10 04:59:16;;;;;;;;;;;22.50;50.70;;;;;;5075589;28;976;-29
2021/12/10 05:01:42;;;;;;;;;;;22.50;50.80;;;;;;5075572;28;1019;-30
2021/12/10 05:04:10;;;;;;;;;;;22.40;50.50;;;;;;5075524;27;1983;-36
2021/12/10 05:06:37;;;;;;;;;;;22.40;50.80;;;;;;5075776;28;957;-34
2021/12/10 05:09:04;;;;;;;;;;;22.40;50.90;;;;;;5074526;28;984;-34
2021/12/10 05:11:31;;;;;;;;;;;22.40;51.10;;;;;;5075706;28;1011;-33
2021/12/10 05:13:59;;;;;;;;;;;22.30;50.90;;;;;;5075226;28;948;-32
2021/12/10 05:16:27;;;;;;;;;;;22.30;51.00;;;;;;5074846;28;1187;-33
2021/12/10 05:18:57;;;;;;;;;;;22.30;51.30;;;;;;5074889;28;948;-33
2021/12/10 05:21:25;;;;;;;;;;;22.30;51.10;;;;;;5074034;28;1193;-32
2021/12/10 05:23:52;;;;;;;;;;;22.30;51.30;;;;;;5074767;28;1902;-33
2021/12/10 05:26:19;;;;;;;;;;;22.40;51.10;;;;;;5073713;28;1004;-32
2021/12/10 05:28:45;;;;;;;;;;;22.40;52.20;;;;;;5075132;27;963;-34
2021/12/10 05:31:14;;;;;;;;;;;22.40;50.80;;;;;;5075238;28;896;-33
2021/12/10 05:33:40;;;;;;;;;;;22.40;50.90;;;;;;5074889;28;956;-33
2021/12/10 05:36:07;;;;;;;;;;;22.40;50.90;;;;;;5074486;28;992;-33
2021/12/10 05:38:34;;;;;;;;;;;22.40;50.70;;;;;;5074759;28;1004;-34
2021/12/10 05:41:04;;;;;;;;;;;22.40;51.00;;;;;;5075052;28;979;-36
2021/12/10 05:43:31;;;;;;;;;;;22.40;50.80;;;;;;5075105;28;1898;-31
2021/12/10 05:45:58;;;;;;;;;;;22.40;50.90;;;;;;5073773;28;905;-33
2021/12/10 05:48:26;;;;;;;;;;;22.40;50.90;;;;;;5074119;28;1000;-31
2021/12/10 05:50:53;;;;;;;;;;;22.40;50.90;;;;;;5074475;28;981;-31
2021/12/10 05:53:20;;;;;;;;;;;22.40;50.70;;;;;;5073752;28;1003;-33
2021/12/10 05:55:47;;;;;;;;;;;22.40;50.80;;;;;;5073113;28;1014;-31
2021/12/10 05:58:14;;;;;;;;;;;22.50;50.90;;;;;;5072835;28;944;-30
2021/12/10 06:00:42;;;;;;;;;;;22.40;50.90;;;;;;5073309;28;991;-31
2021/12/10 06:03:09;;;;;;;;;;;22.40;50.70;;;;;;5072664;28;1971;-30
2021/12/10 06:05:38;;;;;;;;;;;22.40;50.90;;;;;;5073294;27;935;-30
2021/12/10 06:08:05;;;;;;;;;;;22.40;51.10;;;;;;5073634;28;987;-32
2021/12/10 06:10:32;;;;;;;;;;;22.40;50.90;;;;;;5072701;28;1015;-32
2021/12/10 06:12:59;;;;;;;;;;;22.40;51.00;;;;;;5072471;28;985;-32
2021/12/10 06:15:26;;;;;;;;;;;22.40;50.90;;;;;;5072820;28;1032;-33
2021/12/10 06:17:53;;;;;;;;;;;22.40;52.00;;;;;;5071315;28;995;-31
2021/12/10 06:20:21;;;;;;;;;;;22.40;50.90;;;;;;5070679;28;952;-31
2021/12/10 06:22:50;;;;;;;;;;;22.40;51.20;;;;;;5070799;28;1973;-33
2021/12/10 06:25:16;;;;;;;;;;;22.40;51.00;;;;;;5072085;28;943;-31
2021/12/10 06:27:45;;;;;;;;;;;22.40;51.00;;;;;;5071608;28;1098;-31
2021/12/10 06:30:13;;;;;;;;;;;22.50;50.80;;;;;;5069880;28;991;-31
2021/12/10 06:32:40;;;;;;;;;;;22.40;50.90;;;;;;5070581;28;976;-31
2021/12/10 06:35:08;;;;;;;;;;;22.40;51.00;;;;;;5071677;28;1007;-30
2021/12/10 06:37:35;;;;;;;;;;;22.30;50.90;;;;;;5072458;27;1002;-32
2021/12/10 06:40:03;;;;;;;;;;;22.30;51.10;;;;;;5071414;28;1031;-30
2021/12/10 06:42:30;;;;;;;;;;;22.30;51.10;;;;;;5071959;28;1027;-30
2021/12/10 06:44:57;;;;;;;;;;;22.30;51.10;;;;;;5072453;28;1910;-30
2021/12/10 06:47:24;;;;;;;;;;;22.30;50.90;;;;;;5073251;28;1044;-32
2021/12/10 06:49:50;;;;;;;;;;;22.40;51.10;;;;;;5073225;28;1769;-31
2021/12/10 06:52:17;;;;;;;;;;;22.40;51.10;;;;;;5073105;28;1172;-31
2021/12/10 06:54:44;;;;;;;;;;;22.40;50.90;;;;;;5072420;27;939;-37
2021/12/10 06:57:12;;;;;;;;;;;22.40;51.00;;;;;;5073368;28;1361;-32
2021/12/10 06:59:39;;;;;;;;;;;22.40;51.30;;;;;;5073190;28;932;-32
2021/12/10 07:02:06;;;;;;;;;;;22.50;51.40;;;;;;5071519;28;984;-32
2021/12/10 07:04:34;;;;;;;;;;;22.50;51.10;;;;;;5072131;28;1901;-31
2021/12/10 07:07:02;;;;;;;;;;;22.60;51.10;;;;;;5073296;28;996;-30
2021/12/10 07:09:29;;;;;;;;;;;22.60;51.20;;;;;;5074261;28;1011;-33
2021/12/10 07:11:56;;;;;;;;;;;22.60;50.90;;;;;;5077036;28;993;-32
2021/12/10 07:14:24;;;;;;;;;;;22.70;50.80;;;;;;5074487;27;1050;-32
2021/12/10 07:16:51;;;;;;;;;;;22.80;51.00;;;;;;5074508;28;1023;-31
2021/12/10 07:19:18;;;;;;;;;;;22.80;50.40;;;;;;5075473;28;987;-31
2021/12/10 07:21:45;;;;;;;;;;;22.80;50.30;;;;;;5075460;28;1176;-31
2021/12/10 07:24:14;;;;;;;;;;;22.80;50.50;;;;;;5075424;28;1979;-30
2021/12/10 07:26:40;;;;;;;;;;;22.70;50.20;;;;;;5074330;28;993;-32
2021/12/10 07:29:08;;;;;;;;;;;22.80;50.50;;;;;;5074474;28;1044;-32
2021/12/10 07:31:37;;;;;;;;;;;22.80;50.30;;;;;;5075046;27;938;-31
2021/12/10 07:34:04;;;;;;;;;;;22.80;50.20;;;;;;5075691;28;1003;-30
2021/12/10 07:36:32;;;;;;;;;;;22.80;50.40;;;;;;5076775;28;931;-32
2021/12/10 07:38:59;;;;;;;;;;;22.70;50.30;;;;;;5076027;28;1029;-31
2021/12/10 07:41:26;;;;;;;;;;;22.60;50.20;;;;;;5075554;27;1023;-32
2021/12/10 07:43:52;;;;;;;;;;;22.50;50.10;;;;;;5075953;28;1898;-32
2021/12/10 07:46:19;;;;;;;;;;;22.50;49.60;;;;;;5075168;28;940;-31
2021/12/10 07:48:48;;;;;;;;;;;22.50;50.00;;;;;;5075138;28;857;-31
2021/12/10 07:51:16;;;;;;;;;;;22.40;50.30;;;;;;5075530;28;1036;-32
2021/12/10 07:53:44;;;;;;;;;;;22.40;50.40;;;;;;5075543;28;1000;-31
2021/12/10 07:56:12;;;;;;;;;;;22.40;50.40;;;;;;5071735;28;996;-31
2021/12/10 07:58:40;;;;;;;;;;;22.30;50.40;;;;;;5075845;28;1792;-31
2021/12/10 08:01:08;;;;;;;;;;;22.40;50.20;;;;;;5076094;27;998;-33
2021/12/10 08:03:35;;;;;;;;;;;22.30;50.60;;;;;;5074554;28;1983;-32
2021/12/10 08:06:03;;;;;;;;;;;22.30;50.80;;;;;;5075809;28;1024;-30
2021/12/10 08:08:30;;;;;;;;;;;22.30;50.50;;;;;;5075507;28;1014;-32
2021/12/10 08:10:57;;;;;;;;;;;22.30;50.70;;;;;;5074910;28;1002;-31
2021/12/10 08:13:24;;;;;;;;;;;22.30;50.60;;;;;;5075224;27;1039;-31
2021/12/10 08:15:51;;;;;;;;;;;22.40;50.90;;;;;;5074290;27;1034;-32
2021/12/10 08:18:18;;;;;;;;;;;22.30;50.80;;;;;;5074135;28;939;-32
2021/12/10 08:20:45;;;;;;;;;;;22.30;50.50;;;;;;5074292;28;959;-30
2021/12/10 08:23:13;;;;;;;;;;;22.40;50.40;;;;;;5073997;28;1249;-32
2021/12/10 08:25:40;;;;;;;;;;;22.30;50.50;;;;;;5072574;28;1978;-31
2021/12/10 08:28:07;;;;;;;;;;;22.30;50.50;;;;;;5074350;27;946;-31
2021/12/10 08:30:35;;;;;;;;;;;22.30;50.60;;;;;;5073014;28;1007;-32
2021/12/10 08:33:10;;;;;;;;;;;22.30;50.70;;;;;;5074232;28;953;-31
2021/12/10 08:35:37;;;;;;;;;;;22.30;50.70;;;;;;5074762;28;1012;-30
2021/12/10 08:38:04;;;;;;;;;;;22.30;50.30;;;;;;5074575;28;1003;-30
2021/12/10 08:40:33;;;;;;;;;;;22.20;50.70;;;;;;5073865;28;989;-34
2021/12/10 08:43:00;;;;;;;;;;;22.20;50.40;;;;;;5074111;28;985;-31
2021/12/10 08:45:27;;;;;;;;;;;22.20;50.70;;;;;;5074130;28;1902;-31
2021/12/10 08:47:54;;;;;;;;;;;22.20;50.80;;;;;;5073813;28;1022;-30
2021/12/10 08:50:23;;;;;;;;;;;22.20;50.70;;;;;;5074054;28;1023;-31
2021/12/10 08:52:50;;;;;;;;;;;22.20;50.60;;;;;;5074675;28;984;-35
2021/12/10 08:55:17;;;;;;;;;;;22.20;50.80;;;;;;5074865;28;971;-30
2021/12/10 08:57:46;;;;;;;;;;;22.20;50.80;;;;;;5073887;28;1100;-32
2021/12/10 09:00:13;;;;;;;;;;;22.20;50.60;;;;;;5074351;28;948;-31
2021/12/10 09:02:40;;;;;;;;;;;22.20;50.80;;;;;;5073613;28;1008;-31
2021/12/10 09:05:08;;;;;;;;;;;22.20;50.80;;;;;;5073023;27;1902;-31
2021/12/10 09:07:35;;;;;;;;;;;22.10;50.70;;;;;;5074202;28;1047;-32
2021/12/10 09:10:04;;;;;;;;;;;22.20;50.80;;;;;;5072548;27;1018;-32
2021/12/10 09:12:31;;;;;;;;;;;22.10;50.80;;;;;;5073060;28;962;-31
2021/12/10 09:15:01;;;;;;;;;;;22.10;50.90;;;;;;5072391;28;984;-30
2021/12/10 09:17:30;;;;;;;;;;;22.10;50.90;;;;;;5072949;28;896;-33
2021/12/10 09:19:58;;;;;;;;;;;22.10;50.70;;;;;;5073574;28;972;-31
2021/12/10 09:22:25;;;;;;;;;;;22.10;51.00;;;;;;5074007;28;997;-30
2021/12/10 09:24:54;;;;;;;;;;;22.10;50.80;;;;;;5073140;28;1897;-32
2021/12/10 09:27:21;;;;;;;;;;;22.10;50.50;;;;;;5073514;28;1039;-31
2021/12/10 09:29:50;;;;;;;;;;;22.10;50.60;;;;;;5073419;28;943;-32
2021/12/10 09:32:20;;;;;;;;;;;22.10;50.90;;;;;;5073540;28;995;-32
2021/12/10 09:34:47;;;;;;;;;;;22.10;50.70;;;;;;5072343;28;988;-32
2021/12/10 09:37:14;;;;;;;;;;;22.10;50.60;;;;;;5071998;28;995;-31
2021/12/10 09:39:41;;;;;;;;;;;22.00;50.70;;;;;;5074013;28;895;-32
2021/12/10 09:42:09;;;;;;;;;;;22.00;50.70;;;;;;5072698;28;1016;-32
2021/12/10 09:44:35;;;;;;;;;;;22.00;50.70;;;;;;5073100;28;1971;-30
2021/12/10 09:47:04;;;;;;;;;;;22.00;50.80;;;;;;5073761;28;996;-30
2021/12/10 09:49:32;;;;;;;;;;;22.00;50.90;;;;;;5073644;28;821;-31
2021/12/10 09:52:00;;;;;;;;;;;22.00;50.60;;;;;;5073036;28;907;-30
2021/12/10 09:54:28;;;;;;;;;;;22.00;50.80;;;;;;5072627;28;999;-32
2021/12/10 09:56:56;;;;;;;;;;;22.00;50.90;;;;;;5073333;28;1035;-31
2021/12/10 09:59:23;;;;;;;;;;;22.00;50.70;;;;;;5073419;28;1024;-33
2021/12/10 10:01:52;;;;;;;;;;;22.00;50.80;;;;;;5072860;28;948;-32
2021/12/10 10:04:21;;;;;;;;;;;22.00;50.70;;;;;;5072404;28;1982;-34
2021/12/10 10:06:52;;;;;;;;;;;22.00;50.90;;;;;;5073410;27;935;-34
2021/12/10 10:09:20;;;;;;;;;;;22.10;50.60;;;;;;5073122;28;945;-35
2021/12/10 10:11:47;;;;;;;;;;;22.00;50.70;;;;;;5072004;28;943;-34
2021/12/10 10:14:14;;;;;;;;;;;22.00;50.80;;;;;;5073949;28;979;-33
2021/12/10 10:16:44;;;;;;;;;;;22.00;50.80;;;;;;5073123;28;1022;-33
2021/12/10 10:19:11;;;;;;;;;;;22.00;50.70;;;;;;5073475;28;1827;-32
2021/12/10 10:21:39;;;;;;;;;;;22.00;50.70;;;;;;5072742;28;1146;-33
2021/12/10 10:24:07;;;;;;;;;;;22.00;50.70;;;;;;5073579;28;1897;-32
2021/12/10 10:26:35;;;;;;;;;;;22.00;50.60;;;;;;5073227;28;993;-34
2021/12/10 10:29:05;;;;;;;;;;;22.00;50.60;;;;;;5072881;28;999;-33
2021/12/10 10:31:32;;;;;;;;;;;22.00;50.50;;;;;;5073172;28;1007;-32
2021/12/10 10:33:59;;;;;;;;;;;22.10;51.60;;;;;;5072788;28;984;-32
2021/12/10 10:36:27;;;;;;;;;;;22.00;50.50;;;;;;5072684;28;949;-33
2021/12/10 10:38:56;;;;;;;;;;;22.00;50.40;;;;;;5072624;28;962;-34
2021/12/10 10:41:27;;;;;;;;;;;22.00;50.50;;;;;;5073475;28;924;-34
2021/12/10 10:43:53;;;;;;;;;;;22.00;50.70;;;;;;5071140;28;996;-33
2021/12/10 10:46:20;;;;;;;;;;;22.00;50.70;;;;;;5074728;28;1906;-33
2021/12/10 10:48:48;;;;;;;;;;;22.00;50.30;;;;;;5075700;27;1044;-32
2021/12/10 10:51:17;;;;;;;;;;;22.10;50.50;;;;;;5076110;28;968;-33
2021/12/10 10:53:45;;;;;;;;;;;22.00;50.50;;;;;;5075746;27;1050;-34
2021/12/10 10:56:13;;;;;;;;;;;22.00;50.40;;;;;;5075425;28;1014;-34
2021/12/10 10:58:43;;;;;;;;;;;22.00;50.50;;;;;;5075031;28;952;-31
2021/12/10 11:01:15;;;;;;;;;;;22.00;50.40;;;;;;5075113;28;1007;-33
2021/12/10 11:03:45;;;;;;;;;;;22.10;50.40;;;;;;5074655;28;1011;-33
2021/12/10 11:06:14;;;;;;;;;;;22.10;50.40;;;;;;5075001;28;1983;-32
2021/12/10 11:08:42;;;;;;;;;;;22.10;50.30;;;;;;5074186;28;849;-32
2021/12/10 11:11:11;;;;;;;;;;;22.10;50.40;;;;;;5073166;28;952;-33
2021/12/10 11:13:38;;;;;;;;;;;22.10;50.10;;;;;;5075817;28;968;-32
2021/12/10 11:16:08;;;;;;;;;;;22.10;50.30;;;;;;5074857;28;1015;-33
2021/12/10 11:18:46;;;;;;;;;;;22.10;50.10;;;;;;5074697;27;1424;-32
2021/12/10 11:21:13;;;;;;;;;;;22.10;50.20;;;;;;5074922;28;999;-32
2021/12/10 11:23:42;;;;;;;;;;;22.10;50.30;;;;;;5075559;28;1240;-32
2021/12/10 11:26:09;;;;;;;;;;;22.10;50.30;;;;;;5074860;28;1988;-32
2021/12/10 11:28:38;;;;;;;;;;;22.10;50.00;;;;;;5075078;28;1047;-33
2021/12/10 11:31:06;;;;;;;;;;;22.10;50.20;;;;;;5075590;28;945;-31
2021/12/10 11:33:35;;;;;;;;;;;22.10;50.00;;;;;;5074543;27;990;-32
2021/12/10 11:36:06;;;;;;;;;;;22.10;50.10;;;;;;5074354;28;987;-33
2021/12/10 11:38:34;;;;;;;;;;;22.00;50.10;;;;;;5075256;28;936;-32
2021/12/10 11:41:03;;;;;;;;;;;22.00;50.00;;;;;;5075695;28;1010;-32
2021/12/10 11:43:52;;;;;;;;;;;22.00;50.20;;;;;;5074624;28;961;-33
2021/12/10 11:46:44;;;;;;;;;;;22.00;50.20;;;;;;5074964;28;1980;-33
2021/12/10 11:49:15;;;;;;;;;;;22.00;50.20;;;;;;5073958;28;932;-33
2021/12/10 11:51:43;;;;;;;;;;;22.00;50.10;;;;;;5074959;28;1026;-32
2021/12/10 11:54:17;;;;;;;;;;;22.00;50.20;;;;;;5074110;28;945;-32
2021/12/10 11:56:45;;;;;;;;;;;22.10;50.10;;;;;;5073166;28;984;-33
2021/12/10 11:59:14;;;;;;;;;;;22.10;50.10;;;;;;5073838;28;980;-33
2021/12/10 12:01:53;;;;;;;;;;;22.10;49.90;;;;;;5074301;28;1052;-35
2021/12/10 12:04:23;;;;;;;;;;;22.00;50.00;;;;;;5073336;28;1830;-32
2021/12/10 12:07:11;;;;;;;;;;;22.00;50.00;;;;;;5073214;28;1922;-32
2021/12/10 12:09:39;;;;;;;;;;;22.00;49.90;;;;;;5073130;28;2092;-33
2021/12/10 12:12:10;;;;;;;;;;;21.90;49.90;;;;;;5073084;28;1032;-34
2021/12/10 12:14:39;;;;;;;;;;;21.90;49.90;;;;;;5073422;28;991;-33
2021/12/10 12:17:07;;;;;;;;;;;22.00;50.10;;;;;;5073532;28;975;-33
2021/12/10 12:19:36;;;;;;;;;;;22.00;50.10;;;;;;5073927;27;915;-31
2021/12/10 12:25:23;;;;;;;;;;;21.90;50.00;;;;;;5078723;27;1897;-32
2021/12/10 12:27:58;;;;;;;;;;;22.00;50.10;;;;;;5073842;28;991;-33
2021/12/10 12:30:24;;;;;;;;;;;22.00;49.80;;;;;;5072699;28;988;-33
2021/12/10 12:32:53;;;;;;;;;;;21.90;49.80;;;;;;5073088;28;996;-32
2021/12/10 12:35:24;;;;;;;;;;;22.00;50.00;;;;;;5072540;28;1015;-32
2021/12/10 12:37:51;;;;;;;;;;;21.90;50.00;;;;;;5072577;28;702;-32
2021/12/10 12:40:18;;;;;;;;;;;22.00;50.10;;;;;;5071772;28;1019;-34
2021/12/10 12:42:46;;;;;;;;;;;22.00;50.00;;;;;;5073540;28;1084;-32
2021/12/10 12:45:14;;;;;;;;;;;22.00;49.80;;;;;;5072170;28;1909;-31
2021/12/10 12:47:42;;;;;;;;;;;21.90;49.70;;;;;;5073055;28;1028;-31
2021/12/10 12:50:10;;;;;;;;;;;22.00;49.80;;;;;;5073067;28;996;-34
2021/12/10 12:52:43;;;;;;;;;;;22.00;49.90;;;;;;5073617;28;1004;-32
2021/12/10 12:55:29;;;;;;;;;;;21.90;49.90;;;;;;5073648;28;996;-32
2021/12/10 12:57:58;;;;;;;;;;;21.90;49.90;;;;;;5072724;28;944;-32
2021/12/10 13:00:27;;;;;;;;;;;22.00;49.90;;;;;;5071524;28;1008;-31
2021/12/10 13:02:55;;;;;;;;;;;21.90;50.00;;;;;;5072253;28;987;-34
2021/12/10 13:05:30;;;;;;;;;;;21.90;50.20;;;;;;5072410;28;1980;-33
2021/12/10 13:08:05;;;;;;;;;;;21.90;50.00;;;;;;5070807;28;1000;-32
2021/12/10 13:10:34;;;;;;;;;;;22.00;50.00;;;;;;5071214;28;1012;-35
2021/12/10 13:13:11;;;;;;;;;;;22.00;49.90;;;;;;5073189;28;873;-33
2021/12/10 13:15:38;;;;;;;;;;;22.00;49.80;;;;;;5064663;28;1110;-32
2021/12/10 13:18:07;;;;;;;;;;;21.90;49.90;;;;;;5047582;28;896;-34
2021/12/10 13:20:36;;;;;;;;;;;21.80;50.00;;;;;;5047107;28;1062;-34
2021/12/10 13:23:05;;;;;;;;;;;21.90;50.10;;;;;;5046823;28;1045;-33
2021/12/10 13:25:34;;;;;;;;;;;21.90;50.00;;;;;;5046686;28;1898;-32
2021/12/10 13:28:02;;;;;;;;;;;21.80;50.10;;;;;;5046281;28;920;-32
2021/12/10 13:30:31;;;;;;;;;;;21.80;50.20;;;;;;5048178;28;984;-32
2021/12/10 13:32:58;;;;;;;;;;;21.80;50.10;;;;;;5070158;28;907;-32
2021/12/10 13:35:27;;;;;;;;;;;21.80;50.00;;;;;;5070584;28;1059;-32
2021/12/10 13:37:55;;;;;;;;;;;21.80;50.30;;;;;;5060693;28;973;-31
2021/12/10 13:40:22;;;;;;;;;;;21.70;49.90;;;;;;5072174;28;1010;-32
2021/12/10 13:42:51;;;;;;;;;;;21.80;50.20;;;;;;5072117;28;916;-31
2021/12/10 13:45:18;;;;;;;;;;;21.70;50.30;;;;;;5068855;28;1992;-32
2021/12/10 13:47:51;;;;;;;;;;;21.70;50.20;;;;;;5046042;28;1159;-33
2021/12/10 13:50:20;;;;;;;;;;;21.70;50.10;;;;;;5062269;28;1008;-33
2021/12/10 13:52:48;;;;;;;;;;;21.70;50.30;;;;;;5072274;28;999;-32
2021/12/10 13:55:21;;;;;;;;;;;21.70;50.10;;;;;;5070609;28;1023;-35
2021/12/10 13:58:03;;;;;;;;;;;21.70;50.30;;;;;;5052242;28;1054;-34
2021/12/10 14:00:31;;;;;;;;;;;21.70;50.20;;;;;;5062982;27;1566;-32
2021/12/10 14:02:58;;;;;;;;;;;21.70;50.10;;;;;;5072460;28;985;-33
2021/12/10 14:05:26;;;;;;;;;;;21.70;50.00;;;;;;5070961;28;1906;-33
2021/12/10 14:07:54;;;;;;;;;;;21.80;50.10;;;;;;5071719;28;916;-32
2021/12/10 14:10:29;;;;;;;;;;;21.80;50.10;;;;;;5070929;27;912;-34
2021/12/10 14:12:57;;;;;;;;;;;21.70;50.10;;;;;;5071259;28;968;-33
2021/12/10 14:15:26;;;;;;;;;;;21.70;50.10;;;;;;5071930;28;1004;-33
2021/12/10 14:17:56;;;;;;;;;;;21.70;50.00;;;;;;5071884;28;1002;-33
2021/12/10 14:20:24;;;;;;;;;;;21.70;50.20;;;;;;5072017;28;1015;-33
2021/12/10 14:22:52;;;;;;;;;;;21.70;50.20;;;;;;5070825;28;1234;-33
2021/12/10 14:25:22;;;;;;;;;;;21.70;50.10;;;;;;5071056;28;1906;-32
2021/12/10 14:27:51;;;;;;;;;;;21.70;50.10;;;;;;5070443;28;896;-34
2021/12/10 14:30:21;;;;;;;;;;;21.70;50.10;;;;;;5071063;28;939;-33
2021/12/10 14:32:59;;;;;;;;;;;21.60;50.10;;;;;;5070586;28;1278;-34
2021/12/10 14:35:26;;;;;;;;;;;21.70;50.10;;;;;;5070900;28;975;-34
2021/12/10 14:37:56;;;;;;;;;;;21.70;50.10;;;;;;5071022;28;992;-33
2021/12/10 14:40:25;;;;;;;;;;;21.70;50.00;;;;;;5072418;28;1004;-33
2021/12/10 14:43:15;;;;;;;;;;;21.70;50.00;;;;;;5071850;28;861;-33
2021/12/10 14:46:02;;;;;;;;;;;21.70;50.20;;;;;;5072535;28;1898;-33
2021/12/10 14:48:30;;;;;;;;;;;21.70;50.10;;;;;;5070636;28;983;-33
2021/12/10 14:50:59;;;;;;;;;;;21.60;50.20;;;;;;5072329;28;999;-32
2021/12/10 14:53:27;;;;;;;;;;;21.60;50.30;;;;;;5072661;28;1035;-34
2021/12/10 14:55:54;;;;;;;;;;;21.60;50.30;;;;;;5072102;28;1060;-33